Terminal Aerodrome Forecast
Issued by NWS

Home | Current Version | Previous Version | Text Only | Print | Product List | Glossary On
Versions: 1 2 3 4 5 6 7 8 9 10 11 12 13 14 15 16
000
FTUS43 KDLH 241700
TAFHIB
TAF
KHIB 241721Z 2418/2518 VRB03KT P6SM OVC006
     FM242100 VRB03KT P6SM OVC012
     FM250500 21005KT 4SM BR OVC009
     FM250900 23006KT P6SM -FZDZ OVC013
     FM251700 26003KT P6SM OVC017=

USA.gov is the U.S. government's official web portal to all federal, state and local government web resources and services.